Time;durP1;ratioP1;P1;durP2;ratioP2;P2;SDS_P1;SDS_P2;PMS_P1;PMS_P2;Temp;Humidity;BMP_temperature;BMP_pressure;BME280_temperature;BME280_humidity;BME280_pressure;Samples;Min_cycle;Max_cycle;Signal;HPM_P1;HPM_P2
2023/01/15 00:02:16;;;;;;;4.43;1.60;;;6.00;99.90;;;;;;5054688;28;20053;-78
2023/01/15 00:04:43;;;;;;;7.97;3.05;;;6.00;99.90;;;;;;5055282;28;20048;-78
2023/01/15 00:07:10;;;;;;;3.67;1.23;;;6.00;99.90;;;;;;5055868;28;20068;-79
2023/01/15 00:09:36;;;;;;;5.40;1.45;;;6.00;99.90;;;;;;5054213;28;20448;-77
2023/01/15 00:12:03;;;;;;;4.32;1.83;;;6.00;99.90;;;;;;5037346;28;20041;-77
2023/01/15 00:14:30;;;;;;;11.38;1.48;;;6.00;99.90;;;;;;5021016;28;20067;-78
2023/01/15 00:16:56;;;;;;;8.85;2.03;;;6.00;99.90;;;;;;5036934;28;20051;-78
2023/01/15 00:19:23;;;;;;;5.95;1.67;;;6.00;99.90;;;;;;5037191;28;20049;-77
2023/01/15 00:21:51;;;;;;;5.30;1.10;;;6.00;99.90;;;;;;5053813;28;20056;-77
2023/01/15 00:29:49;;;;;;;3.05;0.95;;;5.90;99.90;;;;;;5033926;28;20038;-77
2023/01/15 00:32:16;;;;;;;5.40;1.30;;;5.90;99.90;;;;;;5035163;28;20046;-79
2023/01/15 00:34:43;;;;;;;4.38;1.23;;;5.90;99.90;;;;;;5034586;28;20042;-77
2023/01/15 00:37:10;;;;;;;3.20;1.25;;;5.90;99.90;;;;;;5034332;28;20113;-77
2023/01/15 00:39:36;;;;;;;6.05;1.52;;;5.90;99.90;;;;;;5034936;28;20460;-78
2023/01/15 00:42:03;;;;;;;5.07;1.45;;;5.80;99.90;;;;;;5016629;28;20383;-78
2023/01/15 00:44:32;;;;;;;5.07;1.83;;;5.90;99.90;;;;;;5000903;28;20046;-79
2023/01/15 00:46:59;;;;;;;5.68;1.88;;;5.80;99.90;;;;;;5034654;28;20041;-78
2023/01/15 00:49:26;;;;;;;7.70;1.90;;;5.90;99.90;;;;;;5033771;28;20057;-78
2023/01/15 00:51:52;;;;;;;5.30;1.50;;;5.80;99.90;;;;;;5053681;28;20040;-78
2023/01/15 00:54:21;;;;;;;7.95;1.63;;;5.80;99.90;;;;;;5054555;28;20421;-79
2023/01/15 00:56:48;;;;;;;11.73;2.57;;;5.80;99.90;;;;;;5054115;28;20056;-78
2023/01/15 00:59:14;;;;;;;3.50;1.27;;;5.80;99.90;;;;;;5036961;28;20048;-78
2023/01/15 01:01:42;;;;;;;5.10;1.38;;;5.70;99.90;;;;;;5036816;28;20052;-79
2023/01/15 01:04:09;;;;;;;3.55;1.20;;;5.80;99.90;;;;;;5053413;28;20048;-78
2023/01/15 01:06:35;;;;;;;5.20;1.30;;;5.70;99.90;;;;;;5054417;28;20119;-77
2023/01/15 01:09:02;;;;;;;6.97;1.55;;;5.70;99.90;;;;;;5053494;28;20060;-77
2023/01/15 01:11:32;;;;;;;7.60;1.52;;;5.60;99.90;;;;;;5057350;28;20033;-78
2023/01/15 01:14:04;;;;;;;4.05;1.05;;;5.50;99.90;;;;;;5057340;28;20438;-78
2023/01/15 01:16:34;;;;;;;4.55;1.48;;;5.50;99.90;;;;;;5056619;28;20041;-78
2023/01/15 01:19:02;;;;;;;2.85;1.05;;;5.40;99.90;;;;;;5057623;28;20099;-77
2023/01/15 01:21:29;;;;;;;2.97;1.70;;;5.40;99.90;;;;;;5057157;28;20468;-78
2023/01/15 01:23:57;;;;;;;3.28;1.00;;;5.40;99.90;;;;;;5039674;28;20140;-79
2023/01/15 01:26:24;;;;;;;5.47;1.33;;;5.40;99.90;;;;;;5068908;28;20119;-79
2023/01/15 01:28:51;;;;;;;6.55;1.27;;;5.40;99.90;;;;;;5076201;28;20386;-79
2023/01/15 01:31:17;;;;;;;5.13;1.58;;;5.40;99.90;;;;;;5060361;28;20044;-79
2023/01/15 01:33:45;;;;;;;4.22;1.30;;;5.40;99.90;;;;;;5076659;28;20470;-79
2023/01/15 01:36:13;;;;;;;4.00;1.33;;;5.40;99.90;;;;;;5076416;28;20036;-78
2023/01/15 01:38:39;;;;;;;6.78;1.80;;;5.30;99.90;;;;;;5060254;28;20447;-78
2023/01/15 01:41:06;;;;;;;4.65;1.60;;;5.30;99.90;;;;;;5076743;28;20055;-78
2023/01/15 01:43:33;;;;;;;6.93;1.80;;;5.30;99.90;;;;;;5059096;28;20040;-77
2023/01/15 01:46:00;;;;;;;4.57;1.42;;;5.30;99.90;;;;;;5060296;28;20072;-77
2023/01/15 01:48:26;;;;;;;5.15;2.30;;;5.30;99.90;;;;;;5065925;28;20132;-77
2023/01/15 01:50:53;;;;;;;3.05;1.40;;;5.30;99.90;;;;;;5024149;28;20539;-78
2023/01/15 01:53:20;;;;;;;3.85;1.13;;;5.20;99.90;;;;;;5023464;28;20037;-79
2023/01/15 01:55:47;;;;;;;4.38;1.58;;;5.20;99.90;;;;;;5037730;28;20112;-78
2023/01/15 01:58:15;;;;;;;5.70;2.25;;;5.20;99.90;;;;;;5039887;28;20128;-79
2023/01/15 02:00:41;;;;;;;5.93;1.55;;;5.10;99.90;;;;;;5039870;28;20144;-77
2023/01/15 02:03:09;;;;;;;5.32;1.70;;;5.10;99.90;;;;;;5038997;28;20401;-79
2023/01/15 02:05:36;;;;;;;7.78;1.83;;;5.10;99.90;;;;;;5040338;28;20152;-77
2023/01/15 02:08:02;;;;;;;6.95;1.45;;;5.00;99.90;;;;;;5057484;28;20048;-78
2023/01/15 02:10:29;;;;;;;6.65;1.65;;;5.00;99.90;;;;;;5038894;28;20037;-78
2023/01/15 02:12:59;;;;;;;6.57;1.50;;;5.00;99.90;;;;;;5039331;28;20132;-79
2023/01/15 02:15:28;;;;;;;4.28;1.15;;;5.00;99.90;;;;;;5038888;28;20438;-79
2023/01/15 02:17:55;;;;;;;7.32;1.90;;;5.00;99.90;;;;;;5057105;28;20052;-78
2023/01/15 02:20:21;;;;;;;4.55;1.70;;;5.00;99.90;;;;;;5039249;28;20045;-77
2023/01/15 02:22:49;;;;;;;5.80;1.50;;;4.90;99.90;;;;;;5055950;28;20056;-79
2023/01/15 02:25:15;;;;;;;8.65;2.00;;;4.90;99.90;;;;;;5038012;28;20148;-77
2023/01/15 02:27:43;;;;;;;6.60;1.95;;;4.90;99.90;;;;;;5020063;28;20057;-78
2023/01/15 02:30:11;;;;;;;5.20;1.60;;;4.90;99.90;;;;;;5002490;28;20171;-78
2023/01/15 02:32:48;;;;;;;11.32;2.08;;;4.90;99.90;;;;;;5019461;28;20049;-77
2023/01/15 02:35:16;;;;;;;8.63;1.88;;;4.90;99.90;;;;;;5018700;28;20882;-77
2023/01/15 02:37:43;;;;;;;9.10;1.88;;;4.90;99.90;;;;;;5019416;28;20361;-78
2023/01/15 02:40:09;;;;;;;6.05;2.70;;;4.90;99.90;;;;;;5019254;28;20119;-77
2023/01/15 02:42:36;;;;;;;3.90;1.60;;;4.80;99.90;;;;;;5018425;28;20491;-78
2023/01/15 02:45:04;;;;;;;5.53;1.80;;;4.80;99.90;;;;;;5019844;28;20055;-79
2023/01/15 02:47:31;;;;;;;6.50;1.92;;;4.90;99.90;;;;;;5018993;28;20096;-78
2023/01/15 02:49:57;;;;;;;3.63;1.58;;;4.90;99.90;;;;;;5018286;28;20136;-78
2023/01/15 02:52:25;;;;;;;5.53;1.35;;;4.90;99.90;;;;;;5003088;28;20062;-79
2023/01/15 02:54:52;;;;;;;5.53;1.52;;;4.90;99.90;;;;;;5018800;28;20055;-78
2023/01/15 02:57:19;;;;;;;6.70;2.58;;;4.80;99.90;;;;;;5018497;28;20401;-79
2023/01/15 02:59:52;;;;;;;3.78;1.60;;;4.80;99.90;;;;;;5019581;28;20053;-78
2023/01/15 03:02:21;;;;;;;6.07;1.60;;;4.80;99.90;;;;;;5018126;28;20042;-78
2023/01/15 03:04:48;;;;;;;6.40;1.80;;;4.80;99.90;;;;;;5018678;28;20073;-78
2023/01/15 03:07:14;;;;;;;6.45;1.65;;;4.80;99.90;;;;;;5019074;28;20041;-78
2023/01/15 03:09:41;;;;;;;8.68;3.60;;;4.80;99.90;;;;;;5017979;28;20091;-79
2023/01/15 03:12:09;;;;;;;6.88;2.08;;;4.80;99.90;;;;;;5002679;28;20046;-79
2023/01/15 03:14:39;;;;;;;5.90;1.60;;;4.90;99.90;;;;;;5018425;28;20053;-77
2023/01/15 03:17:07;;;;;;;8.40;2.50;;;4.90;99.90;;;;;;5001938;28;20049;-78
2023/01/15 03:19:34;;;;;;;6.45;1.48;;;4.80;99.90;;;;;;5018663;28;20041;-78
2023/01/15 03:22:02;;;;;;;7.45;1.60;;;4.80;99.90;;;;;;5017626;28;20352;-78
2023/01/15 03:24:29;;;;;;;5.47;1.63;;;4.90;99.90;;;;;;5018400;28;20095;-78
2023/01/15 03:26:57;;;;;;;6.45;2.17;;;4.80;99.90;;;;;;5033972;28;20080;-79
2023/01/15 03:29:24;;;;;;;7.95;1.65;;;4.80;99.90;;;;;;5037544;28;20482;-78
2023/01/15 03:31:52;;;;;;;10.00;2.55;;;4.80;99.90;;;;;;5037825;28;20527;-78
2023/01/15 03:34:19;;;;;;;3.00;1.83;;;4.80;99.90;;;;;;5037952;28;20384;-78
2023/01/15 03:36:47;;;;;;;4.78;1.60;;;4.80;99.90;;;;;;5021012;28;20041;-78
2023/01/15 03:39:13;;;;;;;13.60;2.65;;;4.80;99.90;;;;;;5037909;28;20037;-79
2023/01/15 03:41:47;;;;;;;3.40;1.60;;;4.80;99.90;;;;;;5037769;28;20051;-77
2023/01/15 03:44:14;;;;;;;5.70;1.20;;;4.90;99.90;;;;;;5054698;28;20059;-79
2023/01/15 03:46:41;;;;;;;3.17;1.50;;;4.80;99.90;;;;;;5037959;28;20418;-78
2023/01/15 03:49:10;;;;;;;4.78;1.75;;;4.80;99.90;;;;;;5066961;28;20057;-78
2023/01/15 03:51:39;;;;;;;5.13;1.58;;;4.80;99.90;;;;;;5058148;28;20041;-78
2023/01/15 03:54:07;;;;;;;3.63;1.30;;;4.70;99.90;;;;;;5057654;28;20070;-77
2023/01/15 03:56:35;;;;;;;4.85;1.73;;;4.70;99.90;;;;;;5057260;28;20055;-79
2023/01/15 03:59:02;;;;;;;6.13;1.92;;;4.70;99.90;;;;;;5091007;28;20490;-77
2023/01/15 04:01:45;;;;;;;5.25;1.85;;;4.70;99.90;;;;;;5059207;28;20041;-78
2023/01/15 04:04:13;;;;;;;4.93;1.30;;;4.60;99.90;;;;;;5057672;28;20044;-78
2023/01/15 04:06:40;;;;;;;5.05;1.65;;;4.60;99.90;;;;;;5090972;28;20068;-78
2023/01/15 04:09:07;;;;;;;9.30;2.95;;;4.60;99.90;;;;;;5074606;28;20037;-78
2023/01/15 04:11:34;;;;;;;4.28;1.50;;;4.60;99.90;;;;;;5074875;28;20128;-78
2023/01/15 04:14:03;;;;;;;;;;;4.60;99.90;;;;;;5074065;28;20466;-78
2023/01/15 04:16:37;;;;;;;7.75;1.70;;;4.60;99.90;;;;;;5089938;28;19924;-77
2023/01/15 04:19:05;;;;;;;7.28;2.22;;;4.60;99.90;;;;;;5057470;28;20110;-79
2023/01/15 04:21:34;;;;;;;4.05;1.20;;;4.60;99.90;;;;;;5058221;28;20118;-75
2023/01/15 04:24:01;;;;;;;5.05;1.60;;;4.60;99.90;;;;;;5073619;28;20485;-77
2023/01/15 04:26:27;;;;;;;3.40;1.33;;;4.60;99.90;;;;;;5074773;28;20109;-77
2023/01/15 04:28:54;;;;;;;10.82;1.80;;;4.70;99.90;;;;;;5089847;28;20520;-78
2023/01/15 04:31:21;;;;;;;8.00;1.75;;;4.70;99.90;;;;;;5074639;28;20040;-76
2023/01/15 04:33:47;;;;;;;5.63;1.25;;;4.70;99.90;;;;;;5073597;28;20044;-77
2023/01/15 04:36:14;;;;;;;15.20;3.30;;;4.60;99.90;;;;;;5089721;28;20416;-76
2023/01/15 04:38:41;;;;;;;6.70;1.95;;;4.70;99.90;;;;;;5073786;28;20052;-77
2023/01/15 04:44:06;;;;;;;5.32;1.63;;;4.60;99.90;;;;;;5073645;28;20389;-78
2023/01/15 04:46:32;;;;;;;5.60;1.23;;;4.60;99.90;;;;;;5074844;28;20094;-76
2023/01/15 04:48:59;;;;;;;7.72;3.28;;;4.60;99.90;;;;;;5058319;28;20053;-76
2023/01/15 04:51:26;;;;;;;5.13;1.50;;;4.60;99.90;;;;;;5054411;28;20043;-77
2023/01/15 04:53:52;;;;;;;7.47;1.90;;;4.60;99.90;;;;;;5054832;28;20071;-76
2023/01/15 04:56:19;;;;;;;5.55;2.10;;;4.60;99.90;;;;;;5036238;28;20383;-76
2023/01/15 04:58:46;;;;;;;3.88;1.50;;;4.60;99.90;;;;;;5055020;28;20048;-77
2023/01/15 05:01:12;;;;;;;6.57;1.20;;;4.50;99.90;;;;;;5054909;28;20037;-78
2023/01/15 05:03:40;;;;;;;4.95;1.60;;;4.50;99.90;;;;;;5052347;28;20132;-76
2023/01/15 05:06:07;;;;;;;5.65;2.30;;;4.40;99.90;;;;;;5037402;28;20455;-77
2023/01/15 05:08:34;;;;;;;6.90;1.25;;;4.40;99.90;;;;;;5053427;28;20037;-76
2023/01/15 05:11:01;;;;;;;5.30;1.95;;;4.40;99.90;;;;;;5037118;28;20040;-76
2023/01/15 05:13:28;;;;;;;8.05;1.40;;;4.50;99.90;;;;;;5054343;28;20043;-78
2023/01/15 05:15:55;;;;;;;4.78;1.95;;;4.50;99.90;;;;;;5036035;28;20045;-78
2023/01/15 05:18:22;;;;;;;5.78;1.17;;;4.50;99.90;;;;;;5054616;28;20055;-77
2023/01/15 05:20:50;;;;;;;5.60;1.85;;;4.40;99.90;;;;;;5054627;28;20131;-77
2023/01/15 05:23:18;;;;;;;7.50;1.73;;;4.40;99.90;;;;;;5035676;28;20041;-77
2023/01/15 05:25:44;;;;;;;9.68;1.70;;;4.50;99.90;;;;;;5036674;28;20045;-77
2023/01/15 05:28:11;;;;;;;3.63;0.93;;;4.40;99.90;;;;;;5054569;28;20097;-77
2023/01/15 05:30:38;;;;;;;4.78;1.23;;;4.50;99.90;;;;;;5053112;28;20049;-78
2023/01/15 05:33:05;;;;;;;3.60;1.40;;;4.50;99.90;;;;;;5053947;28;20037;-77
2023/01/15 05:35:32;;;;;;;6.97;1.90;;;4.50;99.90;;;;;;5053427;28;20033;-76
2023/01/15 05:37:59;;;;;;;3.45;1.67;;;4.50;99.90;;;;;;5037172;28;20384;-76
2023/01/15 05:40:25;;;;;;;2.97;1.10;;;4.50;99.90;;;;;;5020631;28;20127;-77
2023/01/15 05:42:52;;;;;;;2.20;1.08;;;4.60;99.90;;;;;;5052848;28;20094;-77
2023/01/15 05:45:19;;;;;;;2.75;1.25;;;4.70;99.90;;;;;;5054152;28;20063;-77
2023/01/15 05:47:45;;;;;;;3.55;1.42;;;4.70;99.90;;;;;;5043240;28;20086;-77
2023/01/15 05:50:12;;;;;;;3.25;1.45;;;4.70;99.90;;;;;;5055989;28;20054;-77
2023/01/15 05:52:39;;;;;;;2.22;1.27;;;4.80;99.90;;;;;;5073990;28;20478;-79
2023/01/15 05:55:05;;;;;;;3.13;1.10;;;4.90;99.90;;;;;;5072204;28;20044;-75
2023/01/15 05:57:32;;;;;;;2.85;1.00;;;4.90;99.90;;;;;;5076614;28;20036;-78
2023/01/15 05:59:59;;;;;;;9.05;1.50;;;4.90;99.90;;;;;;5077621;28;20354;-77
2023/01/15 06:02:26;;;;;;;2.60;0.85;;;5.00;99.90;;;;;;5076527;28;20055;-76
2023/01/15 06:04:53;;;;;;;2.28;1.15;;;5.10;99.90;;;;;;5077671;28;20041;-77
2023/01/15 06:07:20;;;;;;;6.45;1.55;;;5.10;99.90;;;;;;5077368;28;20072;-77
2023/01/15 06:09:46;;;;;;;5.47;1.10;;;5.10;99.90;;;;;;5076586;28;20459;-77
2023/01/15 06:12:13;;;;;;;6.85;1.50;;;5.10;99.90;;;;;;5077541;28;20059;-77
2023/01/15 06:14:40;;;;;;;5.00;1.40;;;5.10;99.90;;;;;;5077282;28;20055;-77
2023/01/15 06:17:07;;;;;;;8.45;3.05;;;5.10;99.90;;;;;;5076327;28;20043;-78
2023/01/15 06:19:33;;;;;;;5.45;1.15;;;5.10;99.90;;;;;;5077187;28;20051;-77
2023/01/15 06:22:00;;;;;;;3.03;1.33;;;5.10;99.90;;;;;;5075931;28;20045;-78
2023/01/15 06:24:29;;;;;;;6.45;1.10;;;5.20;99.90;;;;;;5076771;28;20036;-76
2023/01/15 06:26:55;;;;;;;3.55;1.25;;;5.20;99.90;;;;;;5077197;28;20052;-78
2023/01/15 06:29:22;;;;;;;2.33;1.20;;;5.20;99.90;;;;;;5092239;28;20072;-77
2023/01/15 06:31:49;;;;;;;10.73;1.80;;;5.20;99.90;;;;;;5059130;28;20040;-77
2023/01/15 06:34:16;;;;;;;2.20;1.00;;;5.10;99.90;;;;;;5076724;28;20110;-77
2023/01/15 06:36:42;;;;;;;4.63;2.47;;;5.20;99.90;;;;;;5075139;28;20048;-76
2023/01/15 06:39:09;;;;;;;3.08;0.95;;;5.10;99.90;;;;;;5076727;28;20041;-76
2023/01/15 06:47:22;;;;;;;3.22;1.23;;;5.00;99.90;;;;;;5075657;28;20066;-77
2023/01/15 06:49:49;;;;;;;1.65;0.90;;;4.90;99.90;;;;;;5071424;28;20053;-77
2023/01/15 06:52:16;;;;;;;3.67;1.30;;;4.90;99.90;;;;;;5056622;28;20045;-78
2023/01/15 06:54:43;;;;;;;5.60;1.35;;;4.90;99.90;;;;;;5056556;28;20455;-77
2023/01/15 06:57:09;;;;;;;2.70;1.50;;;4.90;99.90;;;;;;5056141;28;20049;-77
2023/01/15 06:59:36;;;;;;;3.90;1.42;;;4.80;99.90;;;;;;5055651;28;20464;-77
2023/01/15 07:02:03;;;;;;;3.47;1.42;;;4.80;99.90;;;;;;5055533;28;20068;-77
2023/01/15 07:04:29;;;;;;;4.00;1.30;;;4.90;99.90;;;;;;5056297;28;20052;-77
2023/01/15 07:06:56;;;;;;;4.03;1.30;;;4.90;99.90;;;;;;5055232;28;20045;-77
2023/01/15 07:09:23;;;;;;;4.00;1.27;;;4.90;99.90;;;;;;5054246;28;20141;-77
2023/01/15 07:11:49;;;;;;;5.10;1.15;;;4.90;99.90;;;;;;5056643;28;20037;-77
2023/01/15 07:14:17;;;;;;;2.67;1.10;;;4.90;99.90;;;;;;5055051;28;20059;-78
2023/01/15 07:16:44;;;;;;;12.38;1.52;;;4.90;99.90;;;;;;5054387;28;20037;-77
2023/01/15 07:19:10;;;;;;;4.65;1.05;;;4.90;99.90;;;;;;5056350;28;20379;-77
2023/01/15 07:21:37;;;;;;;3.22;1.42;;;4.90;99.90;;;;;;5054791;28;20056;-76
2023/01/15 07:24:04;;;;;;;2.88;1.20;;;5.00;99.90;;;;;;5055688;28;20428;-77
2023/01/15 07:26:31;;;;;;;1.90;0.95;;;5.00;99.90;;;;;;5044351;28;20051;-76
2023/01/15 07:28:57;;;;;;;1.77;0.90;;;5.00;99.90;;;;;;5034056;28;20147;-77
2023/01/15 07:31:24;;;;;;;5.53;1.73;;;5.00;99.90;;;;;;5035629;28;20049;-77
2023/01/15 07:33:52;;;;;;;8.77;2.38;;;5.00;99.90;;;;;;5034568;28;20041;-77
2023/01/15 07:36:19;;;;;;;7.65;1.85;;;5.00;99.90;;;;;;5034000;28;20041;-78
2023/01/15 07:38:45;;;;;;;7.85;2.15;;;5.00;99.90;;;;;;5034749;28;20049;-78
2023/01/15 07:52:14;;;;;;;2.40;0.93;;;5.00;99.90;;;;;;5017869;28;20119;-76
2023/01/15 07:54:40;;;;;;;8.75;2.00;;;5.00;99.90;;;;;;5018057;28;20502;-77
2023/01/15 07:57:07;;;;;;;7.30;1.33;;;5.00;99.90;;;;;;5034766;28;20052;-77
2023/01/15 07:59:34;;;;;;;4.75;1.40;;;5.00;99.90;;;;;;5035534;28;20037;-76
2023/01/15 08:02:00;;;;;;;4.00;1.67;;;5.00;99.90;;;;;;5017174;28;20064;-75
2023/01/15 08:04:28;;;;;;;4.90;1.40;;;5.00;99.90;;;;;;5028393;28;20045;-77
2023/01/15 08:06:54;;;;;;;4.47;1.23;;;5.10;99.90;;;;;;5050476;28;20041;-77
2023/01/15 08:09:21;;;;;;;4.80;1.38;;;5.20;99.90;;;;;;5034507;28;20048;-77
2023/01/15 08:17:18;;;;;;;4.53;1.65;;;5.40;99.90;;;;;;5039979;28;20103;-77
2023/01/15 08:19:45;;;;;;;4.63;1.02;;;5.50;99.90;;;;;;5048020;28;20045;-77
2023/01/15 08:22:13;;;;;;;8.57;1.25;;;5.60;99.90;;;;;;5043803;28;20053;-77
2023/01/15 08:24:39;;;;;;;4.40;1.25;;;5.70;99.90;;;;;;5051822;28;20041;-77
2023/01/15 08:27:06;;;;;;;4.78;1.38;;;5.70;99.90;;;;;;5030897;28;20124;-78
2023/01/15 08:29:33;;;;;;;3.88;1.35;;;5.60;99.90;;;;;;5039089;28;20041;-77
2023/01/15 08:31:59;;;;;;;6.60;2.25;;;5.50;99.90;;;;;;5017430;28;20472;-76
2023/01/15 08:34:29;;;;;;;8.87;2.00;;;5.50;99.90;;;;;;5021501;28;20439;-77
2023/01/15 08:36:58;;;;;;;9.30;1.45;;;5.50;99.90;;;;;;5046779;28;20055;-78
2023/01/15 08:39:25;;;;;;;7.03;1.65;;;5.50;99.90;;;;;;5040503;28;20045;-77
2023/01/15 08:41:52;;;;;;;6.78;2.08;;;5.40;99.90;;;;;;5014348;28;20044;-78
2023/01/15 08:44:20;;;;;;;4.72;1.60;;;5.50;99.90;;;;;;5016013;28;20068;-77
2023/01/15 08:46:47;;;;;;;4.68;1.88;;;5.40;99.90;;;;;;5032716;28;20124;-77
2023/01/15 08:49:14;;;;;;;4.65;1.67;;;5.50;99.90;;;;;;5064008;28;20079;-77
2023/01/15 08:51:40;;;;;;;6.65;1.75;;;5.50;99.90;;;;;;5072420;28;20070;-77
2023/01/15 08:54:07;;;;;;;9.30;1.90;;;5.60;99.90;;;;;;5067090;28;20037;-77
2023/01/15 08:56:34;;;;;;;5.18;2.72;;;5.70;99.90;;;;;;5065950;28;20373;-77
2023/01/15 08:59:01;;;;;;;7.75;2.03;;;5.70;99.90;;;;;;5071844;28;20058;-78
2023/01/15 09:01:27;;;;;;;5.82;2.13;;;5.90;99.90;;;;;;5056575;28;20446;-78
2023/01/15 09:03:54;;;;;;;6.15;1.65;;;5.90;99.90;;;;;;5064455;28;20040;-78
2023/01/15 09:06:21;;;;;;;8.77;2.33;;;6.00;99.90;;;;;;5055079;28;20041;-77
2023/01/15 09:08:47;;;;;;;7.65;1.48;;;6.00;99.90;;;;;;5058420;28;20033;-76
2023/01/15 09:11:14;;;;;;;9.52;1.67;;;6.00;99.90;;;;;;5061521;28;20124;-77
2023/01/15 09:13:41;;;;;;;7.28;1.73;;;6.10;99.90;;;;;;5073819;28;20040;-76
2023/01/15 09:16:10;;;;;;;8.03;1.70;;;6.20;99.90;;;;;;5073652;28;20128;-78
2023/01/15 09:18:37;;;;;;;5.60;2.03;;;6.20;99.90;;;;;;5073171;28;20269;-77
2023/01/15 09:21:05;;;;;;;6.78;2.25;;;6.30;99.90;;;;;;5073727;28;20098;-78
2023/01/15 09:23:31;;;;;;;5.15;1.38;;;6.30;99.90;;;;;;5072583;28;20056;-78
2023/01/15 09:25:58;;;;;;;7.38;1.75;;;6.40;99.90;;;;;;5073792;28;20139;-77
2023/01/15 09:28:25;;;;;;;10.48;2.03;;;6.40;99.90;;;;;;5073082;28;20049;-78
2023/01/15 09:30:51;;;;;;;7.15;1.60;;;6.50;99.90;;;;;;5074614;28;20439;-79
2023/01/15 09:33:20;;;;;;;6.72;1.90;;;6.60;99.90;;;;;;5076312;28;20037;-76
2023/01/15 09:35:47;;;;;;;7.68;1.75;;;6.60;99.90;;;;;;5077011;28;20045;-77
2023/01/15 09:38:13;;;;;;;4.72;2.03;;;6.70;99.90;;;;;;5077845;28;20045;-77
2023/01/15 09:40:40;;;;;;;5.38;2.30;;;6.80;99.90;;;;;;5076667;28;20534;-77
2023/01/15 09:43:07;;;;;;;7.10;2.85;;;6.80;99.90;;;;;;5076009;28;20348;-76
2023/01/15 09:45:34;;;;;;;10.48;2.28;;;6.80;99.90;;;;;;5077321;28;20049;-77
2023/01/15 09:48:00;;;;;;;9.85;3.42;;;6.80;99.90;;;;;;5072441;28;20065;-77
2023/01/15 09:50:27;;;;;;;10.77;2.95;;;6.80;99.90;;;;;;5045663;28;20379;-76
2023/01/15 09:52:54;;;;;;;6.55;2.55;;;6.90;99.90;;;;;;5038039;28;20045;-78
2023/01/15 09:55:21;;;;;;;6.30;2.75;;;6.90;99.90;;;;;;5036036;28;20053;-76
2023/01/15 09:57:48;;;;;;;5.07;1.90;;;7.00;99.90;;;;;;5039617;28;20041;-78
2023/01/15 10:00:14;;;;;;;9.80;2.70;;;7.00;99.90;;;;;;5020113;28;20043;-78
2023/01/15 10:02:41;;;;;;;8.63;3.13;;;7.10;99.90;;;;;;5036087;28;20041;-77
2023/01/15 10:05:08;;;;;;;10.48;1.77;;;7.10;99.90;;;;;;5037290;28;20059;-78
2023/01/15 10:07:34;;;;;;;11.60;2.80;;;7.10;99.90;;;;;;5037393;28;20069;-76
2023/01/15 10:10:01;;;;;;;5.05;1.48;;;7.10;99.90;;;;;;5036413;28;20052;-77
2023/01/15 10:12:38;;;;;;;5.20;1.58;;;7.10;99.90;;;;;;5037403;28;20049;-77
2023/01/15 10:15:05;;;;;;;10.20;2.90;;;7.20;99.90;;;;;;5019725;28;20043;-79
2023/01/15 10:17:33;;;;;;;6.43;1.88;;;7.40;99.90;;;;;;5037710;28;20044;-77
2023/01/15 10:20:00;;;;;;;13.07;2.63;;;7.50;99.90;;;;;;5003583;28;20050;-79
2023/01/15 10:22:27;;;;;;;6.82;2.28;;;7.50;99.90;;;;;;5025516;28;20099;-77
2023/01/15 10:24:53;;;;;;;4.60;1.98;;;7.60;99.90;;;;;;5053894;28;20392;-78
2023/01/15 10:27:20;;;;;;;9.18;2.08;;;7.80;99.90;;;;;;5003349;28;20053;-77
2023/01/15 10:29:47;;;;;;;12.88;2.33;;;7.80;99.90;;;;;;5035826;28;20372;-77
2023/01/15 10:32:13;;;;;;;8.65;2.97;;;7.90;99.90;;;;;;5035762;28;20092;-79
2023/01/15 10:34:40;;;;;;;8.27;1.83;;;8.00;99.90;;;;;;5019257;28;20045;-77
2023/01/15 10:37:07;;;;;;;7.30;2.17;;;8.00;99.90;;;;;;5035799;28;20038;-77
2023/01/15 10:39:33;;;;;;;8.18;2.78;;;7.90;99.90;;;;;;5003225;28;20050;-79
2023/01/15 10:42:00;;;;;;;9.95;2.60;;;7.70;99.90;;;;;;5017808;28;20037;-78
2023/01/15 10:44:27;;;;;;;5.63;2.53;;;7.80;99.90;;;;;;5036263;28;20042;-77
2023/01/15 10:46:55;;;;;;;8.85;2.30;;;7.90;99.90;;;;;;5036898;28;20067;-77
2023/01/15 10:49:24;;;;;;;11.07;2.50;;;8.20;99.90;;;;;;5037425;28;20065;-77
2023/01/15 10:51:51;;;;;;;7.45;2.03;;;8.40;99.90;;;;;;5002113;28;20411;-78
2023/01/15 10:54:18;;;;;;;12.68;3.22;;;8.50;99.90;;;;;;5036360;28;20048;-78
2023/01/15 10:56:44;;;;;;;6.85;2.17;;;8.40;99.90;;;;;;5035035;28;20045;-78
2023/01/15 10:59:11;;;;;;;6.28;2.03;;;8.40;99.90;;;;;;5018515;28;20379;-78
2023/01/15 11:01:38;;;;;;;6.72;2.45;;;8.40;99.90;;;;;;5035048;28;20045;-79
2023/01/15 11:04:06;;;;;;;6.95;2.03;;;8.60;99.90;;;;;;5036324;28;20099;-78
2023/01/15 11:06:34;;;;;;;6.65;1.88;;;8.80;99.90;;;;;;5001988;28;20472;-79
2023/01/15 11:09:01;;;;;;;9.32;2.35;;;8.80;99.90;;;;;;5035485;28;20049;-78
2023/01/15 11:19:35;;;;;;;4.00;1.85;;;9.00;99.90;;;;;;5035949;28;20064;-77
2023/01/15 11:19:55;;;;;;;6.47;1.80;;;9.30;99.90;;;;;;5036397;28;20067;-80
2023/01/15 11:22:23;;;;;;;8.98;2.20;;;9.30;99.90;;;;;;5016884;28;20048;-78
2023/01/15 11:24:50;;;;;;;9.50;2.20;;;9.30;99.90;;;;;;5035602;28;20055;-77
2023/01/15 11:27:17;;;;;;;6.82;1.90;;;9.40;99.90;;;;;;5036234;28;20037;-77
2023/01/15 11:29:44;;;;;;;6.80;2.58;;;9.40;99.90;;;;;;5037273;28;20514;-79
2023/01/15 11:32:10;;;;;;;7.93;2.47;;;9.40;99.90;;;;;;5021711;28;20040;-79
2023/01/15 11:34:39;;;;;;;6.30;2.20;;;9.20;99.90;;;;;;5055917;28;20037;-77
2023/01/15 11:37:05;;;;;;;11.07;2.47;;;9.00;99.90;;;;;;5054803;28;20040;-78
2023/01/15 11:39:32;;;;;;;6.22;2.40;;;8.80;99.90;;;;;;5055605;28;20056;-77
2023/01/15 11:53:00;;;;;;;11.88;2.92;;;8.40;99.90;;;;;;5074047;28;20138;-76
2023/01/15 11:55:27;;;;;;;9.18;2.50;;;8.30;99.90;;;;;;5065866;28;20414;-79
2023/01/15 11:57:54;;;;;;;14.77;2.47;;;8.30;99.90;;;;;;5055883;28;20073;-77
2023/01/15 12:00:20;;;;;;;6.13;2.30;;;8.40;99.90;;;;;;5054373;28;20040;-77
2023/01/15 12:02:48;;;;;;;9.15;3.38;;;8.40;99.90;;;;;;5052759;28;20049;-78
2023/01/15 12:05:14;;;;;;;7.20;2.05;;;8.40;99.90;;;;;;5055114;28;20472;-78
2023/01/15 12:07:41;;;;;;;10.40;2.58;;;8.40;99.90;;;;;;5054927;28;20044;-78
2023/01/15 12:10:10;;;;;;;10.52;3.35;;;8.50;99.90;;;;;;5052306;28;20460;-80
2023/01/15 12:12:37;;;;;;;7.27;2.40;;;8.50;99.90;;;;;;5016969;28;20484;-78
2023/01/15 12:15:05;;;;;;;8.77;2.10;;;8.50;99.90;;;;;;5034236;28;20456;-79
2023/01/15 12:17:32;;;;;;;10.00;3.08;;;8.50;99.90;;;;;;5017198;28;20048;-78
2023/01/15 12:19:59;;;;;;;7.35;2.42;;;8.40;99.90;;;;;;5034970;28;20349;-78
2023/01/15 12:22:25;;;;;;;8.15;2.03;;;8.20;99.90;;;;;;5032730;28;20440;-78
2023/01/15 12:24:52;;;;;;;10.35;2.53;;;8.10;99.90;;;;;;5034690;28;20048;-79
2023/01/15 12:27:19;;;;;;;11.57;2.42;;;8.00;99.90;;;;;;5053020;28;20033;-78
2023/01/15 12:29:45;;;;;;;7.25;2.10;;;7.90;99.90;;;;;;5036565;28;20109;-81
2023/01/15 12:32:12;;;;;;;11.30;2.13;;;7.80;99.90;;;;;;5049203;28;20401;-79
2023/01/15 12:34:41;;;;;;;8.73;1.90;;;7.80;99.90;;;;;;5001211;28;20048;-80
2023/01/15 12:37:07;;;;;;;9.15;2.50;;;7.80;99.90;;;;;;5033929;28;20037;-80
2023/01/15 12:39:34;;;;;;;8.07;2.75;;;7.80;99.90;;;;;;5034547;28;20044;-80
2023/01/15 12:45:06;;;;;;;9.90;1.80;;;8.10;99.90;;;;;;5034772;28;20051;-80
2023/01/15 12:47:33;;;;;;;10.07;1.70;;;8.30;99.90;;;;;;5025863;28;20091;-79
2023/01/15 12:49:59;;;;;;;9.80;2.60;;;8.30;99.90;;;;;;5053658;28;20056;-80
2023/01/15 12:52:27;;;;;;;5.75;1.83;;;8.40;99.90;;;;;;5036571;28;20148;-81
2023/01/15 12:54:54;;;;;;;7.07;1.98;;;8.40;99.90;;;;;;5054583;28;20042;-80
2023/01/15 12:57:20;;;;;;;6.70;2.65;;;8.40;99.90;;;;;;5019805;28;20060;-80
2023/01/15 12:59:47;;;;;;;8.38;2.40;;;8.40;99.90;;;;;;5037093;28;20040;-82
2023/01/15 13:02:15;;;;;;;8.55;2.85;;;8.40;99.90;;;;;;5035740;28;20147;-81
2023/01/15 13:04:42;;;;;;;7.88;2.15;;;8.30;99.90;;;;;;5021966;28;20037;-80
2023/01/15 13:07:08;;;;;;;9.57;2.33;;;8.30;99.90;;;;;;5058539;28;20465;-80
2023/01/15 13:09:35;;;;;;;10.35;2.85;;;8.30;99.90;;;;;;5057986;28;20041;-79
2023/01/15 13:12:01;;;;;;;9.27;2.30;;;8.30;99.90;;;;;;5024384;28;20045;-80
2023/01/15 13:17:16;;;;;;;10.35;2.50;;;8.40;99.90;;;;;;5057622;28;20102;-82
2023/01/15 13:19:43;;;;;;;10.63;2.42;;;8.30;99.90;;;;;;5058331;28;20041;-82
2023/01/15 13:22:10;;;;;;;11.63;3.05;;;8.40;99.90;;;;;;5039937;28;20045;-81
2023/01/15 13:24:40;;;;;;;6.47;1.90;;;8.50;99.90;;;;;;5058136;28;20198;-81
2023/01/15 13:27:06;;;;;;;5.60;1.65;;;8.50;99.90;;;;;;5024267;28;20060;-82
2023/01/15 13:29:33;;;;;;;6.45;2.85;;;8.50;99.90;;;;;;5039554;28;20037;-80
2023/01/15 13:32:00;;;;;;;7.22;2.78;;;8.70;99.90;;;;;;5040419;28;20049;-81
2023/01/15 13:34:27;;;;;;;5.47;2.13;;;8.60;99.90;;;;;;5040287;28;20048;-78
2023/01/15 13:36:53;;;;;;;7.38;1.60;;;8.40;99.90;;;;;;5057055;28;20052;-78
2023/01/15 13:39:20;;;;;;;9.30;2.95;;;8.30;99.90;;;;;;5040548;28;20041;-81
2023/01/15 13:44:32;;;;;;;6.10;1.98;;;8.20;99.90;;;;;;5057888;28;20112;-80
2023/01/15 13:46:59;;;;;;;7.97;2.28;;;8.20;99.90;;;;;;5054320;28;20033;-79
2023/01/15 13:49:25;;;;;;;7.57;2.60;;;8.10;99.90;;;;;;5048709;28;20063;-80
2023/01/15 13:51:52;;;;;;;6.03;2.10;;;8.00;99.90;;;;;;5077928;28;20049;-78